Aviation Digital Data Service (ADDS)

Output produced by METARs form (2253 UTC 15 February 2019)
found at http://www.aviationweather.gov/metar/data/
 
METAR text: RJTF 150700Z VRB02KT 9999 FEW010 SCT015 BKN020 05/01 Q1020
Conditions at: RJTF (CHOFU AIRPORT , JP) observed 0700 UTC 15 February 2019
Temperature: 5.0°C (41°F)
Dewpoint: 1.0°C (34°F) [RH = 75%]
Pressure (altimeter): 30.12 inches Hg (1020.0 mb)
Winds: variable direction winds at 2 MPH (2 knots; 1.0 m/s)
Visibility: 6 or more miles (10+ km)
Ceiling: 2000 feet AGL
Clouds: few clouds at 1000 feet AGL
scattered clouds at 1500 feet AGL
broken clouds at 2000 feet AGL
Weather: no significant weather observed at this time

METAR text: RJTF 150600Z 14006KT 110V170 9999 FEW010 BKN015 BKN020 04/01 Q1020
Conditions at: RJTF (CHOFU AIRPORT , JP) observed 0600 UTC 15 February 2019
Temperature: 4.0°C (39°F)
Dewpoint: 1.0°C (34°F) [RH = 81%]
Pressure (altimeter): 30.12 inches Hg (1020.0 mb)
Winds: from the SE (140 degrees) at 7 MPH (6 knots; 3.1 m/s)
Visibility: 6 or more miles (10+ km)
Ceiling: 1500 feet AGL
Clouds: few clouds at 1000 feet AGL
broken clouds at 1500 feet AGL
broken clouds at 2000 feet AGL
Weather: no significant weather observed at this time

METAR text: RJTF 150500Z 12007KT 080V170 9999 FEW015 BKN020 BKN060 04/M00 Q1021
Conditions at: RJTF (CHOFU AIRPORT , JP) observed 0500 UTC 15 February 2019
Temperature: 4.0°C (39°F)
Dewpoint: 0.0°C (32°F) [RH = 75%]
Pressure (altimeter): 30.15 inches Hg (1021.0 mb)
Winds: from the ESE (120 degrees) at 8 MPH (7 knots; 3.6 m/s)
Visibility: 6 or more miles (10+ km)
Ceiling: 2000 feet AGL
Clouds: few clouds at 1500 feet AGL
broken clouds at 2000 feet AGL
broken clouds at 6000 feet AGL
Weather: no significant weather observed at this time

METAR text: RJTF 150400Z 13006KT 090V180 9999 FEW030 SCT060 BKN150 06/M03 Q1023
Conditions at: RJTF (CHOFU AIRPORT , JP) observed 0400 UTC 15 February 2019
Temperature: 6.0°C (43°F)
Dewpoint: -3.0°C (27°F) [RH = 52%]
Pressure (altimeter): 30.21 inches Hg (1023.0 mb)
Winds: from the SE (130 degrees) at 7 MPH (6 knots; 3.1 m/s)
Visibility: 6 or more miles (10+ km)
Ceiling: 15000 feet AGL
Clouds: few clouds at 3000 feet AGL
scattered clouds at 6000 feet AGL
broken clouds at 15000 feet AGL
Weather: no significant weather observed at this time

METAR text: RJTF 150300Z 11005KT 070V150 9999 FEW030 SCT060 BKN150 05/M07 Q1024
Conditions at: RJTF (CHOFU AIRPORT , JP) observed 0300 UTC 15 February 2019
Temperature: 5.0°C (41°F)
Dewpoint: -7.0°C (19°F) [RH = 41%]
Pressure (altimeter): 30.24 inches Hg (1024.0 mb)
Winds: from the ESE (110 degrees) at 6 MPH (5 knots; 2.6 m/s)
Visibility: 6 or more miles (10+ km)
Ceiling: 15000 feet AGL
Clouds: few clouds at 3000 feet AGL
scattered clouds at 6000 feet AGL
broken clouds at 15000 feet AGL
Weather: no significant weather observed at this time

METAR text: RJTF 150200Z 03004KT 310V080 9999 FEW030 SCT040 BKN060 03/M09 Q1026
Conditions at: RJTF (CHOFU AIRPORT , JP) observed 0200 UTC 15 February 2019
Temperature: 3.0°C (37°F)
Dewpoint: -9.0°C (16°F) [RH = 41%]
Pressure (altimeter): 30.30 inches Hg (1026.0 mb)
Winds: from the NNE (30 degrees) at 5 MPH (4 knots; 2.1 m/s)
Visibility: 6 or more miles (10+ km)
Ceiling: 6000 feet AGL
Clouds: few clouds at 3000 feet AGL
scattered clouds at 4000 feet AGL
broken clouds at 6000 feet AGL
Weather: no significant weather observed at this time

METAR text: RJTF 150100Z 34005KT 9999 FEW030 BKN045 02/M08 Q1026
Conditions at: RJTF (CHOFU AIRPORT , JP) observed 0100 UTC 15 February 2019
Temperature: 2.0°C (36°F)
Dewpoint: -8.0°C (18°F) [RH = 47%]
Pressure (altimeter): 30.30 inches Hg (1026.0 mb)
Winds: from the NNW (340 degrees) at 6 MPH (5 knots; 2.6 m/s)
Visibility: 6 or more miles (10+ km)
Ceiling: 4500 feet AGL
Clouds: few clouds at 3000 feet AGL
broken clouds at 4500 feet AGL
Weather: no significant weather observed at this time

METAR text: RJTF 150000Z 35006KT 9999 FEW030 BKN050 01/M08 Q1027
Conditions at: RJTF (CHOFU AIRPORT , JP) observed 0000 UTC 15 February 2019
Temperature: 1.0°C (34°F)
Dewpoint: -8.0°C (18°F) [RH = 51%]
Pressure (altimeter): 30.32 inches Hg (1027.0 mb)
Winds: from the N (350 degrees) at 7 MPH (6 knots; 3.1 m/s)
Visibility: 6 or more miles (10+ km)
Ceiling: 5000 feet AGL
Clouds: few clouds at 3000 feet AGL
broken clouds at 5000 feet AGL
Weather: no significant weather observed at this time

METAR text: RJTF 142330Z 34007KT 300V020 9999 FEW030 BKN050 BKN070 01/M08 Q1027
Conditions at: RJTF (CHOFU AIRPORT , JP) observed 2330 UTC 14 February 2019
Temperature: 1.0°C (34°F)
Dewpoint: -8.0°C (18°F) [RH = 51%]
Pressure (altimeter): 30.32 inches Hg (1027.0 mb)
Winds: from the NNW (340 degrees) at 8 MPH (7 knots; 3.6 m/s)
Visibility: 6 or more miles (10+ km)
Ceiling: 5000 feet AGL
Clouds: few clouds at 3000 feet AGL
broken clouds at 5000 feet AGL
broken clouds at 7000 feet AGL
Weather: no significant weather observed at this time